Time;durP1;ratioP1;P1;durP2;ratioP2;P2;SDS_P1;SDS_P2;PMS_P1;PMS_P2;Temp;Humidity;BMP_temperature;BMP_pressure;BME280_temperature;BME280_humidity;BME280_pressure;Samples;Min_cycle;Max_cycle;Signal;HPM_P1;HPM_P2
2022/10/05 00:02:23;;;;;;;8.23;3.53;;;16.70;99.90;;;;;;4976210;28;24072;-70
2022/10/05 00:04:54;;;;;;;11.80;4.40;;;16.70;99.90;;;;;;4977743;28;25097;-71
2022/10/05 00:07:21;;;;;;;6.97;3.95;;;16.70;99.90;;;;;;4975658;28;25059;-72
2022/10/05 00:09:57;;;;;;;5.50;3.60;;;16.70;99.90;;;;;;4976822;28;25088;-71
2022/10/05 00:12:24;;;;;;;5.88;3.85;;;16.70;99.90;;;;;;4974902;28;25063;-71
2022/10/05 00:14:54;;;;;;;8.38;4.65;;;16.60;99.90;;;;;;4975993;28;25062;-70
2022/10/05 00:17:24;;;;;;;5.82;3.58;;;16.60;99.90;;;;;;4977370;28;25069;-73
2022/10/05 00:19:52;;;;;;;6.90;3.70;;;16.60;99.90;;;;;;4979506;28;25092;-71
2022/10/05 00:22:21;;;;;;;8.57;3.97;;;16.60;99.90;;;;;;4983093;28;25134;-71
2022/10/05 00:24:54;;;;;;;7.43;3.88;;;16.60;99.90;;;;;;4982944;28;25072;-69
2022/10/05 00:27:24;;;;;;;10.10;3.80;;;16.60;99.90;;;;;;4980630;28;25084;-70
2022/10/05 00:29:52;;;;;;;5.22;3.83;;;16.50;99.90;;;;;;4981611;28;25100;-71
2022/10/05 00:32:18;;;;;;;6.22;4.07;;;16.50;99.90;;;;;;4980825;28;25132;-71
2022/10/05 00:34:44;;;;;;;8.65;4.22;;;16.50;99.90;;;;;;4986501;28;25063;-71
2022/10/05 00:37:10;;;;;;;6.90;3.72;;;16.50;99.90;;;;;;4977983;28;25053;-71
2022/10/05 00:39:38;;;;;;;6.90;3.90;;;16.50;99.90;;;;;;4983975;28;25070;-71
2022/10/05 00:42:26;;;;;;;9.65;4.30;;;16.50;99.90;;;;;;4978107;28;25081;-70
2022/10/05 00:45:09;;;;;;;5.75;3.60;;;16.50;99.90;;;;;;4978078;28;25053;-70
2022/10/05 00:47:56;;;;;;;8.88;4.28;;;16.50;99.90;;;;;;4984437;28;25062;-70
2022/10/05 00:50:31;;;;;;;5.32;3.80;;;16.40;99.90;;;;;;4982715;28;25051;-72
2022/10/05 00:53:04;;;;;;;5.57;3.53;;;16.40;99.90;;;;;;4977609;28;24712;-71
2022/10/05 00:55:54;;;;;;;7.07;3.88;;;16.40;99.90;;;;;;4997081;28;25068;-71
2022/10/05 00:59:01;;;;;;;6.15;4.13;;;16.40;99.90;;;;;;4994734;28;25172;-69
2022/10/05 01:01:47;;;;;;;6.90;4.57;;;16.40;99.90;;;;;;4960908;28;25098;-71
2022/10/05 01:04:27;;;;;;;7.45;4.30;;;16.50;99.90;;;;;;4961828;28;25063;-70
2022/10/05 01:07:12;;;;;;;10.32;4.75;;;16.40;99.90;;;;;;4975192;28;25116;-70
2022/10/05 01:10:07;;;;;;;10.75;4.75;;;16.40;99.90;;;;;;4982988;28;25086;-71
2022/10/05 01:12:57;;;;;;;6.85;4.95;;;16.40;99.90;;;;;;4981170;28;25085;-72
2022/10/05 01:15:40;;;;;;;7.65;4.68;;;16.40;99.90;;;;;;4986084;28;25149;-69
2022/10/05 01:18:33;;;;;;;9.32;4.85;;;16.30;99.90;;;;;;4981699;28;25100;-70
2022/10/05 01:21:13;;;;;;;11.88;4.55;;;16.30;99.90;;;;;;4983184;28;25065;-72
2022/10/05 01:23:53;;;;;;;7.05;4.55;;;16.40;99.90;;;;;;4989266;28;25053;-72
2022/10/05 01:26:31;;;;;;;5.82;3.95;;;16.40;99.90;;;;;;4985381;28;25079;-73
2022/10/05 01:29:21;;;;;;;9.00;4.40;;;16.40;99.90;;;;;;4980910;28;25071;-72
2022/10/05 01:31:56;;;;;;;8.57;4.40;;;16.40;99.90;;;;;;4979064;28;25074;-70
2022/10/05 01:34:36;;;;;;;8.57;4.35;;;16.40;99.90;;;;;;4985451;28;25106;-69
2022/10/05 01:37:26;;;;;;;8.20;4.30;;;16.30;99.90;;;;;;4974601;28;25076;-71
2022/10/05 01:40:18;;;;;;;7.68;4.22;;;16.40;99.90;;;;;;4981833;28;25190;-71
2022/10/05 01:43:14;;;;;;;9.70;4.55;;;16.30;99.90;;;;;;4988278;28;25095;-70
2022/10/05 01:45:54;;;;;;;13.20;4.45;;;16.30;99.90;;;;;;4974073;28;25072;-69
2022/10/05 01:48:36;;;;;;;8.50;3.97;;;16.40;99.90;;;;;;4975086;28;25078;-70
2022/10/05 01:51:02;;;;;;;;;;;16.40;99.90;;;;;;4979229;28;25107;-69
2022/10/05 01:53:37;;;;;;;9.57;4.57;;;16.30;99.90;;;;;;4979011;28;24175;-70
2022/10/05 01:56:17;;;;;;;10.60;4.45;;;16.30;99.90;;;;;;4980976;28;25058;-70
2022/10/05 01:59:04;;;;;;;7.32;4.88;;;16.30;99.90;;;;;;4983733;28;25071;-70
2022/10/05 02:01:55;;;;;;;8.50;4.65;;;16.30;99.90;;;;;;4987945;28;25080;-70
2022/10/05 02:04:36;;;;;;;9.98;4.50;;;16.30;99.90;;;;;;4987915;28;25058;-70
2022/10/05 02:07:12;;;;;;;8.85;4.55;;;16.30;99.90;;;;;;4978723;28;25096;-70
2022/10/05 02:09:46;;;;;;;12.88;5.63;;;16.30;99.90;;;;;;4988077;28;25103;-69
2022/10/05 02:12:16;;;;;;;8.57;5.15;;;16.30;99.90;;;;;;4985207;28;25058;-73
2022/10/05 02:14:44;;;;;;;11.07;5.35;;;16.40;99.90;;;;;;4983990;28;25144;-70
2022/10/05 02:17:16;;;;;;;8.18;4.82;;;16.30;99.90;;;;;;4980339;28;25084;-70
2022/10/05 02:19:46;;;;;;;10.13;5.10;;;16.30;99.90;;;;;;4982746;28;25078;-74
2022/10/05 02:22:18;;;;;;;9.45;4.60;;;16.30;99.90;;;;;;4984294;28;25101;-70
2022/10/05 02:24:50;;;;;;;9.52;4.50;;;16.30;99.90;;;;;;4991355;28;25071;-71
2022/10/05 02:27:23;;;;;;;7.90;4.28;;;16.30;99.90;;;;;;4998483;28;25097;-72
2022/10/05 02:29:50;;;;;;;9.02;5.05;;;16.30;99.90;;;;;;4991821;28;25218;-71
2022/10/05 02:32:23;;;;;;;9.25;4.78;;;16.20;99.90;;;;;;4997309;28;25137;-72
2022/10/05 02:34:49;;;;;;;9.32;5.38;;;16.20;99.90;;;;;;5000253;28;25058;-72
2022/10/05 02:37:22;;;;;;;9.98;4.53;;;16.30;99.90;;;;;;4995363;28;25071;-72
2022/10/05 02:40:13;;;;;;;11.18;4.85;;;16.20;99.90;;;;;;5003944;28;25147;-70
2022/10/05 02:42:51;;;;;;;7.82;4.50;;;16.20;99.90;;;;;;4993855;28;25075;-71
2022/10/05 02:45:43;;;;;;;9.68;4.18;;;16.30;99.90;;;;;;4995060;28;25054;-71
2022/10/05 02:48:30;;;;;;;;;;;16.20;99.90;;;;;;4988084;28;25052;-71
2022/10/05 02:51:10;;;;;;;10.30;4.30;;;16.20;99.90;;;;;;4994665;28;25081;-72
2022/10/05 02:54:14;;;;;;;8.45;4.45;;;16.10;99.90;;;;;;4982245;28;25051;-70
2022/10/05 02:56:59;;;;;;;11.25;5.07;;;16.10;99.90;;;;;;4996507;28;25066;-70
2022/10/05 02:59:39;;;;;;;5.97;4.07;;;16.10;99.90;;;;;;5001558;28;25063;-71
2022/10/05 03:02:19;;;;;;;10.48;4.72;;;16.10;99.90;;;;;;4985890;28;25062;-71
2022/10/05 03:04:57;;;;;;;12.50;5.38;;;16.20;99.90;;;;;;4989755;28;25067;-70
2022/10/05 03:07:29;;;;;;;6.82;4.38;;;16.20;99.90;;;;;;4999430;28;25090;-72
2022/10/05 03:10:15;;;;;;;7.93;4.78;;;16.20;99.90;;;;;;4995676;28;25060;-70
2022/10/05 03:12:51;;;;;;;9.30;4.30;;;16.20;99.90;;;;;;4996454;28;25076;-71
2022/10/05 03:15:35;;;;;;;7.53;4.80;;;16.10;99.90;;;;;;5001049;28;25107;-69
2022/10/05 03:18:19;;;;;;;10.25;4.25;;;16.10;99.90;;;;;;4994019;28;25079;-72
2022/10/05 03:21:12;;;;;;;7.28;4.07;;;16.00;99.90;;;;;;4993579;28;25119;-72
2022/10/05 03:24:06;;;;;;;7.10;3.88;;;16.00;99.90;;;;;;4998432;28;25161;-69
2022/10/05 03:26:45;;;;;;;4.57;3.47;;;15.90;99.90;;;;;;4989003;28;25093;-71
2022/10/05 03:29:46;;;;;;;5.78;3.40;;;15.90;99.90;;;;;;4989314;28;25074;-70
2022/10/05 03:32:49;;;;;;;6.47;2.97;;;15.90;99.90;;;;;;4997889;28;25048;-71
2022/10/05 03:35:30;;;;;;;3.22;2.75;;;15.90;99.90;;;;;;4978091;28;25051;-72
2022/10/05 03:38:16;;;;;;;5.70;2.97;;;15.90;99.90;;;;;;4981785;28;25140;-70
2022/10/05 03:41:05;;;;;;;4.32;2.35;;;15.90;99.90;;;;;;4989190;28;25089;-69
2022/10/05 03:43:49;;;;;;;2.05;1.90;;;16.00;99.90;;;;;;4996076;28;25072;-71
2022/10/05 03:46:36;;;;;;;4.63;2.72;;;16.00;99.90;;;;;;4987049;28;25074;-71
2022/10/05 03:49:26;;;;;;;2.97;2.22;;;15.90;99.90;;;;;;4978666;28;25064;-72
2022/10/05 03:52:08;;;;;;;2.80;2.10;;;15.90;99.90;;;;;;4986817;28;25091;-71
2022/10/05 03:54:39;;;;;;;2.25;1.73;;;15.90;99.90;;;;;;5000837;28;25054;-70
2022/10/05 03:57:11;;;;;;;4.00;1.75;;;15.90;99.90;;;;;;4986018;28;25071;-68
2022/10/05 03:59:59;;;;;;;3.88;1.95;;;15.90;99.90;;;;;;4998605;28;25069;-69
2022/10/05 04:02:33;;;;;;;1.85;1.70;;;15.90;99.90;;;;;;4991459;28;25156;-69
2022/10/05 04:05:14;;;;;;;3.30;2.10;;;15.90;99.90;;;;;;4997295;28;25103;-71
2022/10/05 04:07:45;;;;;;;2.10;1.48;;;15.90;99.90;;;;;;4989586;28;25043;-70
2022/10/05 04:10:37;;;;;;;2.20;1.75;;;16.00;99.90;;;;;;4995038;28;25063;-69
2022/10/05 04:13:13;;;;;;;3.15;2.05;;;15.90;99.90;;;;;;4983616;28;25076;-71
2022/10/05 04:15:51;;;;;;;4.20;1.92;;;16.00;99.90;;;;;;4989590;28;25074;-71
2022/10/05 04:18:22;;;;;;;4.78;1.70;;;15.90;99.90;;;;;;4986251;28;25109;-69
2022/10/05 04:20:57;;;;;;;3.13;1.63;;;15.90;99.90;;;;;;4991534;28;25051;-70
2022/10/05 04:23:56;;;;;;;2.28;1.40;;;15.90;99.90;;;;;;4988393;28;25066;-70
2022/10/05 04:26:47;;;;;;;4.80;1.58;;;15.90;99.90;;;;;;4974555;28;25112;-70
2022/10/05 04:29:36;;;;;;;4.07;1.65;;;15.80;99.90;;;;;;4985433;28;25074;-70
2022/10/05 04:32:08;;;;;;;1.85;1.45;;;15.90;99.90;;;;;;4986710;28;25158;-69
2022/10/05 04:34:58;;;;;;;2.50;1.00;;;15.90;99.90;;;;;;4986827;28;25131;-71
2022/10/05 04:37:48;;;;;;;4.10;1.10;;;15.80;99.90;;;;;;4993170;28;25062;-70
2022/10/05 04:40:26;;;;;;;1.98;1.30;;;15.80;99.90;;;;;;4982214;28;25063;-71
2022/10/05 04:43:06;;;;;;;2.08;1.13;;;15.80;99.90;;;;;;4999528;28;25167;-70
2022/10/05 04:45:44;;;;;;;1.50;1.30;;;15.80;99.90;;;;;;4983701;28;25063;-69
2022/10/05 04:48:31;;;;;;;1.60;1.15;;;15.80;99.90;;;;;;4988509;28;25087;-69
2022/10/05 04:51:34;;;;;;;1.52;1.13;;;15.80;99.90;;;;;;4989533;28;25147;-69
2022/10/05 04:54:29;;;;;;;4.47;1.60;;;15.80;99.90;;;;;;4988306;28;25126;-69
2022/10/05 04:56:58;;;;;;;1.20;1.10;;;15.80;99.90;;;;;;4990823;28;25111;-69
2022/10/05 04:59:46;;;;;;;9.55;1.20;;;15.90;99.90;;;;;;4980236;28;25077;-73
2022/10/05 05:02:31;;;;;;;2.05;1.17;;;15.90;99.90;;;;;;4980760;28;25126;-71
2022/10/05 05:05:16;;;;;;;2.05;1.17;;;15.80;99.90;;;;;;4983280;28;25106;-70
2022/10/05 05:08:11;;;;;;;3.90;1.38;;;15.80;99.90;;;;;;4982528;28;25114;-71
2022/10/05 05:10:46;;;;;;;1.92;1.30;;;15.80;99.90;;;;;;4980937;28;25076;-71
2022/10/05 05:13:17;;;;;;;2.45;1.55;;;15.80;99.90;;;;;;4979700;28;25088;-69
2022/10/05 05:15:59;;;;;;;2.67;1.48;;;15.80;99.90;;;;;;4981297;28;25064;-70
2022/10/05 05:18:47;;;;;;;1.83;1.27;;;15.80;99.90;;;;;;4980040;28;25053;-71
2022/10/05 05:21:48;;;;;;;2.40;1.50;;;15.80;99.90;;;;;;4980471;28;25066;-71
2022/10/05 05:24:24;;;;;;;2.00;1.48;;;15.70;99.90;;;;;;4986870;28;25080;-71
2022/10/05 05:27:23;;;;;;;3.63;1.50;;;15.80;99.90;;;;;;4986305;28;25133;-71
2022/10/05 05:30:16;;;;;;;1.60;1.42;;;15.80;99.90;;;;;;4983264;28;25079;-70
2022/10/05 05:33:03;;;;;;;2.25;1.20;;;15.80;99.90;;;;;;4987588;28;25079;-69
2022/10/05 05:35:58;;;;;;;1.77;1.48;;;15.80;99.90;;;;;;4989666;28;25077;-70
2022/10/05 05:38:39;;;;;;;2.47;1.67;;;15.80;99.90;;;;;;4997517;28;25111;-70
2022/10/05 05:41:49;;;;;;;4.57;3.05;;;15.90;99.90;;;;;;4996121;28;25136;-70
2022/10/05 05:44:28;;;;;;;2.53;1.90;;;15.90;99.90;;;;;;4986440;28;25067;-71
2022/10/05 05:47:06;;;;;;;4.45;1.98;;;15.80;99.90;;;;;;4977626;28;25136;-72
2022/10/05 05:50:05;;;;;;;2.10;1.70;;;15.90;99.90;;;;;;4986761;28;25079;-70
2022/10/05 05:52:37;;;;;;;5.85;1.50;;;15.80;99.90;;;;;;4982297;28;25107;-68
2022/10/05 05:55:21;;;;;;;1.50;1.40;;;15.80;99.90;;;;;;4987119;28;25076;-70
2022/10/05 05:58:15;;;;;;;1.27;1.17;;;15.90;99.90;;;;;;5001197;28;25063;-69
2022/10/05 06:01:03;;;;;;;2.20;1.52;;;15.80;99.90;;;;;;4984419;28;25073;-72
2022/10/05 06:03:58;;;;;;;5.25;1.55;;;15.90;99.90;;;;;;4982285;28;25059;-70
2022/10/05 06:06:33;;;;;;;2.33;1.30;;;15.90;99.90;;;;;;4987285;28;25075;-71
2022/10/05 06:09:11;;;;;;;4.18;1.90;;;15.90;99.90;;;;;;4993372;28;25076;-69
2022/10/05 06:11:44;;;;;;;1.20;0.93;;;15.90;99.90;;;;;;4999968;28;25059;-70
2022/10/05 06:14:34;;;;;;;2.45;1.35;;;15.90;99.90;;;;;;5006071;28;25054;-71
2022/10/05 06:17:09;;;;;;;2.30;1.85;;;16.00;99.90;;;;;;4973853;28;25102;-73
2022/10/05 06:19:43;;;;;;;3.40;1.02;;;16.00;99.90;;;;;;4991278;28;25057;-70
2022/10/05 06:22:32;;;;;;;4.53;2.47;;;16.00;99.90;;;;;;4997625;28;25113;-71
2022/10/05 06:25:10;;;;;;;1.77;1.40;;;16.00;99.90;;;;;;4975555;28;25132;-73
2022/10/05 06:27:37;;;;;;;3.10;2.15;;;16.00;99.90;;;;;;4996742;28;25058;-70
2022/10/05 06:30:14;;;;;;;1.65;1.55;;;16.00;99.90;;;;;;4994667;28;25107;-70
2022/10/05 06:32:49;;;;;;;2.75;2.08;;;16.00;99.90;;;;;;5000729;28;25062;-70
2022/10/05 06:35:17;;;;;;;2.63;1.65;;;15.90;99.90;;;;;;5013931;28;25074;-71
2022/10/05 06:38:14;;;;;;;3.90;2.05;;;15.90;99.90;;;;;;5009042;28;25083;-69
2022/10/05 06:41:18;;;;;;;2.40;1.70;;;15.90;99.90;;;;;;5008895;28;25076;-72
2022/10/05 06:44:22;;;;;;;2.42;1.67;;;16.00;99.90;;;;;;4990913;28;25065;-70
2022/10/05 06:47:09;;;;;;;4.00;2.33;;;16.00;99.90;;;;;;4993739;28;25085;-70
2022/10/05 06:49:40;;;;;;;6.57;1.90;;;16.10;99.90;;;;;;5001856;28;25053;-71
2022/10/05 06:52:18;;;;;;;1.80;1.70;;;16.10;99.90;;;;;;5004184;28;25064;-73
2022/10/05 06:54:54;;;;;;;6.38;2.08;;;16.10;99.90;;;;;;5003992;28;25078;-72
2022/10/05 06:58:10;;;;;;;3.38;2.05;;;16.10;99.90;;;;;;5009798;28;25064;-73
2022/10/05 07:00:59;;;;;;;4.35;2.42;;;16.10;99.90;;;;;;4970374;28;25076;-71
2022/10/05 07:03:47;;;;;;;3.08;2.00;;;16.10;99.90;;;;;;4999647;28;25146;-71
2022/10/05 07:06:24;;;;;;;4.82;2.50;;;16.10;99.90;;;;;;4986608;28;25070;-70
2022/10/05 07:09:13;;;;;;;4.07;2.45;;;16.10;99.90;;;;;;4998907;28;25055;-70
2022/10/05 07:12:15;;;;;;;2.63;2.05;;;16.10;99.90;;;;;;4984798;28;25079;-70
2022/10/05 07:14:44;;;;;;;4.45;1.88;;;16.00;99.90;;;;;;4990175;28;25140;-69
2022/10/05 07:17:17;;;;;;;3.10;2.10;;;16.00;99.90;;;;;;4997415;28;25147;-68
2022/10/05 07:20:16;;;;;;;5.20;2.85;;;16.00;99.90;;;;;;4993483;28;25076;-70
2022/10/05 07:23:10;;;;;;;3.13;2.35;;;16.10;99.90;;;;;;4987438;28;25105;-74
2022/10/05 07:26:00;;;;;;;3.47;2.15;;;16.00;99.90;;;;;;4983579;28;25188;-70
2022/10/05 07:28:39;;;;;;;3.38;2.25;;;16.10;99.90;;;;;;4988128;28;25120;-72
2022/10/05 07:31:10;;;;;;;5.38;2.15;;;16.00;99.90;;;;;;4991061;28;25102;-72
2022/10/05 07:33:50;;;;;;;4.20;2.20;;;16.00;99.90;;;;;;4984161;28;25092;-72
2022/10/05 07:39:54;;;;;;;4.15;2.10;;;16.10;99.90;;;;;;4982973;28;25060;-71
2022/10/05 07:42:42;;;;;;;4.95;2.40;;;16.10;99.90;;;;;;4981337;28;25111;-70
2022/10/05 07:45:30;;;;;;;6.07;2.20;;;16.10;99.90;;;;;;4983550;28;25069;-70
2022/10/05 07:48:00;;;;;;;2.90;2.55;;;16.10;99.90;;;;;;4982482;28;25047;-71
2022/10/05 07:50:49;;;;;;;6.63;2.30;;;16.10;99.90;;;;;;4984650;28;25059;-71
2022/10/05 07:53:22;;;;;;;4.22;1.92;;;16.10;99.90;;;;;;4978769;28;25097;-71
2022/10/05 07:55:54;;;;;;;2.75;1.80;;;16.10;99.90;;;;;;4997903;28;25078;-70
2022/10/05 07:58:28;;;;;;;7.05;1.75;;;16.10;99.90;;;;;;4992480;28;25065;-71
2022/10/05 08:01:06;;;;;;;3.90;2.00;;;16.10;99.90;;;;;;4989035;28;25142;-71
2022/10/05 08:03:48;;;;;;;2.20;1.55;;;16.10;99.90;;;;;;4988338;28;25080;-70
2022/10/05 08:06:49;;;;;;;2.60;1.80;;;16.10;99.90;;;;;;4993423;28;25062;-70
2022/10/05 08:09:37;;;;;;;2.13;1.55;;;16.10;99.90;;;;;;4985975;28;25105;-70
2022/10/05 08:12:19;;;;;;;5.10;2.00;;;16.10;99.90;;;;;;4988292;28;25083;-68
2022/10/05 08:14:56;;;;;;;3.55;1.80;;;16.10;99.90;;;;;;4986968;28;25233;-70
2022/10/05 08:17:30;;;;;;;3.20;1.85;;;16.10;99.90;;;;;;4978708;28;25084;-70
2022/10/05 08:20:14;;;;;;;4.18;2.00;;;16.00;99.90;;;;;;4977658;28;25053;-72
2022/10/05 08:22:50;;;;;;;2.40;2.00;;;16.10;99.90;;;;;;4986188;28;25069;-70
2022/10/05 08:25:29;;;;;;;4.90;2.13;;;16.10;99.90;;;;;;4977852;28;25058;-70
2022/10/05 08:28:20;;;;;;;2.42;1.95;;;16.10;99.90;;;;;;4996165;28;25058;-69
2022/10/05 08:31:07;;;;;;;2.20;1.60;;;16.20;99.90;;;;;;4994013;28;25097;-69
2022/10/05 08:34:06;;;;;;;3.40;1.52;;;16.20;99.90;;;;;;4985541;28;25133;-72
2022/10/05 08:36:38;;;;;;;2.17;1.98;;;16.20;99.90;;;;;;4981762;28;25100;-70
2022/10/05 08:39:13;;;;;;;2.85;1.90;;;16.10;99.90;;;;;;4979344;28;25064;-71
2022/10/05 08:42:26;;;;;;;1.73;1.58;;;16.10;99.90;;;;;;4974756;28;25124;-71
2022/10/05 08:45:29;;;;;;;2.97;1.70;;;16.20;99.90;;;;;;4965634;28;25091;-71
2022/10/05 08:48:10;;;;;;;1.60;1.45;;;16.20;99.90;;;;;;4969180;28;25087;-71
2022/10/05 08:50:54;;;;;;;5.70;2.05;;;16.20;99.90;;;;;;4976975;28;25073;-72
2022/10/05 08:53:32;;;;;;;4.60;1.35;;;16.30;99.90;;;;;;4973093;28;25139;-71
2022/10/05 08:56:13;;;;;;;2.33;1.52;;;16.30;99.90;;;;;;4985006;28;25059;-69
2022/10/05 08:58:59;;;;;;;1.60;1.30;;;16.30;99.90;;;;;;4987666;28;25136;-69
2022/10/05 09:01:50;;;;;;;6.50;1.75;;;16.40;99.90;;;;;;4978157;28;25094;-68
2022/10/05 09:04:21;;;;;;;3.35;1.38;;;16.50;99.90;;;;;;4972893;28;25072;-69
2022/10/05 09:07:06;;;;;;;2.53;1.38;;;16.50;99.90;;;;;;4985687;28;25064;-71
2022/10/05 09:09:51;;;;;;;3.20;1.83;;;16.60;99.90;;;;;;4982199;28;25140;-71
2022/10/05 09:12:40;;;;;;;3.53;1.92;;;16.70;99.90;;;;;;4985028;28;25106;-71
2022/10/05 09:15:15;;;;;;;2.35;1.83;;;16.70;99.90;;;;;;4976940;28;25077;-72
2022/10/05 09:18:20;;;;;;;4.45;2.00;;;16.70;99.90;;;;;;4989977;28;25133;-69
2022/10/05 09:20:57;;;;;;;3.38;2.03;;;16.80;99.90;;;;;;4993758;28;25089;-69
2022/10/05 09:23:42;;;;;;;2.15;1.75;;;16.70;99.90;;;;;;4983811;28;25087;-71
2022/10/05 09:26:45;;;;;;;5.25;2.22;;;16.70;99.90;;;;;;4983035;28;25063;-69
2022/10/05 09:29:48;;;;;;;3.88;1.60;;;16.70;99.90;;;;;;4981664;28;25048;-72
2022/10/05 09:32:51;;;;;;;4.35;2.00;;;16.70;99.90;;;;;;4996696;28;25110;-70
2022/10/05 09:35:35;;;;;;;2.17;1.40;;;16.70;99.90;;;;;;4991597;28;25069;-71
2022/10/05 09:38:28;;;;;;;4.90;1.90;;;16.70;99.90;;;;;;4979368;28;25064;-69
2022/10/05 09:41:25;;;;;;;2.72;1.60;;;16.80;99.90;;;;;;4980969;28;25128;-70
2022/10/05 09:44:10;;;;;;;4.70;1.85;;;16.80;99.90;;;;;;4965890;28;25089;-71
2022/10/05 09:46:44;;;;;;;2.53;2.00;;;16.80;99.90;;;;;;4984271;28;25108;-69
2022/10/05 09:49:30;;;;;;;4.28;2.08;;;16.90;99.90;;;;;;4997193;28;25063;-69
2022/10/05 09:52:10;;;;;;;3.58;1.70;;;16.90;99.90;;;;;;4972513;28;25155;-67
2022/10/05 09:54:44;;;;;;;4.47;2.25;;;17.00;99.90;;;;;;4987471;28;25072;-71
2022/10/05 09:57:29;;;;;;;2.67;1.85;;;17.00;99.90;;;;;;4990384;28;25146;-68
2022/10/05 10:00:41;;;;;;;11.48;3.20;;;16.90;99.90;;;;;;4985075;28;25113;-70
2022/10/05 10:03:38;;;;;;;2.90;2.00;;;17.00;99.90;;;;;;4984164;28;25095;-72
2022/10/05 10:06:16;;;;;;;3.58;1.75;;;17.00;99.90;;;;;;4989242;28;25064;-71
2022/10/05 10:08:59;;;;;;;8.75;3.83;;;17.00;99.90;;;;;;4980908;28;25079;-68
2022/10/05 10:11:27;;;;;;;3.47;2.05;;;17.00;99.90;;;;;;4997263;28;25043;-72
2022/10/05 10:14:47;;;;;;;2.92;1.90;;;17.00;99.90;;;;;;4980719;28;25063;-70
2022/10/05 10:17:38;;;;;;;4.13;1.90;;;17.10;99.90;;;;;;4983924;28;25094;-70
2022/10/05 10:20:27;;;;;;;4.18;1.38;;;17.20;99.90;;;;;;4984107;28;25095;-69
2022/10/05 10:23:09;;;;;;;3.78;1.60;;;17.10;99.90;;;;;;4995200;28;25076;-69
2022/10/05 10:26:00;;;;;;;4.57;1.70;;;17.10;99.90;;;;;;4988963;28;25110;-69
2022/10/05 10:28:42;;;;;;;3.88;2.38;;;17.10;99.90;;;;;;4997222;28;25071;-69
2022/10/05 10:31:49;;;;;;;2.45;2.10;;;17.10;99.90;;;;;;4989397;28;25050;-70
2022/10/05 10:34:46;;;;;;;3.50;2.03;;;17.10;99.90;;;;;;4978642;28;25090;-70
2022/10/05 10:37:50;;;;;;;6.25;2.42;;;17.10;99.90;;;;;;4988183;28;25077;-70
2022/10/05 10:40:33;;;;;;;4.68;1.98;;;17.10;99.90;;;;;;4993496;28;25122;-72
2022/10/05 10:43:20;;;;;;;5.03;1.70;;;17.10;99.90;;;;;;4994621;28;25101;-70
2022/10/05 10:45:55;;;;;;;5.70;1.75;;;17.20;99.90;;;;;;4992973;28;25162;-72
2022/10/05 10:48:39;;;;;;;6.07;2.35;;;17.30;99.90;;;;;;4993036;28;25102;-70
2022/10/05 10:51:18;;;;;;;3.22;1.60;;;17.30;99.90;;;;;;4987010;28;25093;-72
2022/10/05 10:54:16;;;;;;;2.90;1.50;;;17.30;99.90;;;;;;4982057;28;25367;-72
2022/10/05 10:57:02;;;;;;;3.70;1.85;;;17.30;99.90;;;;;;4997815;28;25063;-71
2022/10/05 10:59:31;;;;;;;3.65;1.75;;;17.40;99.90;;;;;;4997885;28;25080;-67
2022/10/05 11:02:37;;;;;;;5.85;2.08;;;17.40;99.90;;;;;;4991603;28;25184;-71
2022/10/05 11:05:24;;;;;;;3.22;1.58;;;17.40;99.90;;;;;;4983471;28;25172;-71
2022/10/05 11:08:05;;;;;;;3.10;1.92;;;17.40;99.90;;;;;;4998366;28;25066;-69
2022/10/05 11:11:07;;;;;;;2.80;1.90;;;17.40;99.90;;;;;;4999241;28;25123;-72
2022/10/05 11:14:01;;;;;;;5.68;2.00;;;17.40;99.90;;;;;;5006550;28;25060;-73
2022/10/05 11:16:38;;;;;;;3.60;1.70;;;17.40;99.90;;;;;;4995733;28;25093;-68
2022/10/05 11:19:25;;;;;;;5.00;2.75;;;17.40;99.90;;;;;;4987679;28;25254;-72
2022/10/05 11:22:18;;;;;;;3.65;1.60;;;17.40;99.90;;;;;;4992345;28;25055;-70
2022/10/05 11:25:23;;;;;;;3.25;1.77;;;17.50;99.90;;;;;;4987125;28;25079;-71
2022/10/05 11:28:16;;;;;;;2.60;1.80;;;17.50;99.90;;;;;;4978798;28;25135;-70
2022/10/05 11:30:51;;;;;;;7.10;1.80;;;17.60;99.90;;;;;;4979124;28;25074;-70
2022/10/05 11:33:54;;;;;;;5.40;1.73;;;17.60;99.90;;;;;;4983009;28;25050;-71
2022/10/05 11:37:04;;;;;;;2.83;2.00;;;17.70;99.90;;;;;;4988044;28;25054;-70
2022/10/05 11:39:50;;;;;;;3.58;2.08;;;17.80;99.90;;;;;;4998383;28;25062;-70
2022/10/05 11:42:25;;;;;;;3.45;1.60;;;17.70;99.90;;;;;;4996881;28;25067;-70
2022/10/05 11:45:05;;;;;;;5.82;2.05;;;17.70;99.90;;;;;;4993235;28;25054;-70
2022/10/05 11:47:50;;;;;;;3.65;1.85;;;17.80;99.90;;;;;;4997941;28;25070;-71
2022/10/05 11:50:31;;;;;;;5.55;1.92;;;17.80;99.90;;;;;;4996843;28;25064;-72
2022/10/05 11:53:02;;;;;;;5.78;1.85;;;17.90;99.90;;;;;;4988383;28;25069;-69
2022/10/05 11:55:46;;;;;;;5.22;1.85;;;17.90;99.90;;;;;;4991719;28;25109;-75
2022/10/05 11:58:33;;;;;;;2.45;1.83;;;18.20;99.90;;;;;;4985985;28;25059;-71
2022/10/05 12:01:04;;;;;;;4.13;1.75;;;18.20;99.90;;;;;;4984430;28;25057;-70
2022/10/05 12:03:38;;;;;;;2.63;1.80;;;18.00;99.90;;;;;;4987922;28;25052;-69
2022/10/05 12:06:20;;;;;;;6.30;2.08;;;18.10;99.90;;;;;;5000491;28;25060;-71
2022/10/05 12:09:01;;;;;;;3.65;1.85;;;18.10;99.90;;;;;;4996096;28;25080;-71
2022/10/05 12:11:46;;;;;;;2.92;1.88;;;18.20;99.90;;;;;;4996141;28;25097;-70
2022/10/05 12:14:19;;;;;;;8.27;2.35;;;18.30;99.90;;;;;;4993472;28;25083;-70
2022/10/05 12:16:58;;;;;;;2.55;1.70;;;18.30;99.90;;;;;;4995655;28;25136;-70
2022/10/05 12:19:33;;;;;;;3.50;1.65;;;18.30;99.90;;;;;;4996936;28;25112;-71
2022/10/05 12:22:21;;;;;;;8.20;2.03;;;18.30;99.90;;;;;;4974669;28;25080;-70
2022/10/05 12:25:05;;;;;;;3.03;2.00;;;18.50;99.90;;;;;;4966077;28;25416;-72
2022/10/05 12:27:52;;;;;;;4.15;2.20;;;18.40;99.90;;;;;;4983553;28;25097;-69
2022/10/05 12:30:48;;;;;;;3.05;1.42;;;18.60;99.90;;;;;;4979515;28;25144;-70
2022/10/05 12:33:44;;;;;;;5.30;1.95;;;18.50;99.90;;;;;;4983482;28;25072;-71
2022/10/05 12:36:31;;;;;;;6.95;1.90;;;18.30;99.90;;;;;;4989555;28;25081;-71
2022/10/05 12:39:10;;;;;;;4.20;1.60;;;18.30;99.90;;;;;;4988700;28;25063;-72
2022/10/05 12:42:01;;;;;;;3.30;2.22;;;18.30;99.90;;;;;;4990812;28;25054;-69
2022/10/05 12:44:43;;;;;;;1.88;1.70;;;18.40;99.90;;;;;;4979638;28;25114;-69
2022/10/05 12:47:36;;;;;;;4.47;1.70;;;18.30;99.90;;;;;;4993992;28;25167;-71
2022/10/05 12:50:31;;;;;;;3.13;1.88;;;18.40;99.90;;;;;;4984899;28;25061;-72
2022/10/05 12:53:06;;;;;;;4.40;2.10;;;18.20;99.90;;;;;;4999923;28;25055;-71
2022/10/05 12:55:50;;;;;;;3.15;1.85;;;18.30;99.90;;;;;;4999345;28;25163;-69
2022/10/05 12:58:34;;;;;;;3.60;2.20;;;18.30;99.90;;;;;;5002847;28;25055;-69
2022/10/05 13:01:25;;;;;;;5.40;2.28;;;18.30;99.90;;;;;;4979174;28;25053;-69
2022/10/05 13:04:16;;;;;;;2.35;1.80;;;18.30;99.90;;;;;;4980552;28;25059;-71
2022/10/05 13:07:04;;;;;;;8.65;2.17;;;18.30;99.90;;;;;;4979225;28;25075;-70
2022/10/05 13:09:43;;;;;;;4.63;1.80;;;18.20;99.90;;;;;;4981950;28;25080;-70
2022/10/05 13:12:27;;;;;;;2.78;2.00;;;18.30;99.90;;;;;;4971930;28;25079;-72
2022/10/05 13:15:02;;;;;;;2.92;1.75;;;18.20;99.90;;;;;;4988736;28;25142;-73
2022/10/05 13:17:38;;;;;;;3.50;2.15;;;18.10;99.90;;;;;;4995934;28;25146;-72
2022/10/05 13:20:16;;;;;;;5.45;2.53;;;18.00;99.90;;;;;;4985395;28;25101;-70
2022/10/05 13:22:47;;;;;;;3.50;2.05;;;18.10;99.90;;;;;;4993497;28;25399;-70
2022/10/05 13:25:12;;;;;;;3.15;1.95;;;18.10;99.90;;;;;;4986533;28;25116;-72
2022/10/05 13:27:47;;;;;;;2.58;1.73;;;18.10;99.90;;;;;;5001123;28;25097;-69
2022/10/05 13:30:15;;;;;;;5.90;1.75;;;18.10;99.90;;;;;;4972180;28;25088;-72
2022/10/05 13:32:49;;;;;;;3.13;2.03;;;18.10;99.90;;;;;;4995430;28;25114;-69
2022/10/05 13:35:31;;;;;;;8.38;2.47;;;18.10;99.90;;;;;;4995056;28;25120;-72
2022/10/05 13:38:16;;;;;;;2.35;2.05;;;17.90;99.90;;;;;;4988450;28;25103;-70
2022/10/05 13:41:06;;;;;;;4.18;2.15;;;18.00;99.90;;;;;;4994161;28;25152;-69
2022/10/05 13:43:37;;;;;;;3.88;2.13;;;18.10;99.90;;;;;;4992861;28;25085;-73
2022/10/05 13:46:21;;;;;;;2.83;1.70;;;18.00;99.90;;;;;;4988144;28;25206;-71
2022/10/05 13:49:25;;;;;;;2.45;1.73;;;18.00;99.90;;;;;;4995457;28;25055;-72
2022/10/05 13:52:05;;;;;;;2.88;1.60;;;18.10;99.90;;;;;;4990801;28;25091;-72
2022/10/05 13:54:42;;;;;;;3.47;1.48;;;18.00;99.90;;;;;;4993308;28;25081;-71
2022/10/05 13:57:43;;;;;;;3.67;1.92;;;18.20;99.90;;;;;;4997860;28;25068;-71
2022/10/05 14:00:23;;;;;;;4.78;1.85;;;18.10;99.90;;;;;;4988418;28;25107;-71
2022/10/05 14:02:51;;;;;;;3.72;2.00;;;18.00;99.90;;;;;;4998891;28;25145;-69
2022/10/05 14:05:29;;;;;;;1.92;1.55;;;18.20;99.90;;;;;;4993174;28;25060;-70
2022/10/05 14:08:00;;;;;;;4.25;2.05;;;18.10;99.90;;;;;;4988802;28;25049;-69
2022/10/05 14:10:40;;;;;;;4.15;1.65;;;18.00;99.90;;;;;;4995932;28;25065;-72
2022/10/05 14:13:25;;;;;;;1.85;1.55;;;18.00;99.90;;;;;;4987336;28;25155;-70
2022/10/05 14:15:58;;;;;;;5.28;1.75;;;18.10;99.90;;;;;;4999267;28;25094;-74